Time;durP1;ratioP1;P1;durP2;ratioP2;P2;SDS_P1;SDS_P2;PMS_P1;PMS_P2;Temp;Humidity;BMP_temperature;BMP_pressure;BME280_temperature;BME280_humidity;BME280_pressure;Samples;Min_cycle;Max_cycle;Signal;HPM_P1;HPM_P2
2023/06/03 00:00:08;;;;;;;;;;;16.60;87.00;;;;;;4958641;28;19914;-71
2023/06/03 00:02:36;;;;;;;;;;;16.60;87.90;;;;;;4954111;28;20009;-72
2023/06/03 00:05:04;;;;;;;;;;;16.50;87.70;;;;;;4955643;28;19930;-71
2023/06/03 00:07:30;;;;;;;;;;;16.60;88.10;;;;;;4952984;28;19910;-72
2023/06/03 00:09:56;;;;;;;;;;;16.70;87.60;;;;;;4949968;28;20022;-71
2023/06/03 00:12:21;;;;;;;;;;;16.60;87.70;;;;;;4958512;28;20008;-71
2023/06/03 00:14:47;;;;;;;;;;;16.50;87.70;;;;;;4950981;28;19972;-71
2023/06/03 00:17:12;;;;;;;;;;;16.50;87.70;;;;;;4958166;28;19993;-72
2023/06/03 00:19:41;;;;;;;;;;;16.60;88.00;;;;;;4960995;28;19920;-72
2023/06/03 00:22:09;;;;;;;;;;;16.60;86.80;;;;;;4956771;28;19914;-71
2023/06/03 00:24:36;;;;;;;;;;;16.60;87.50;;;;;;4960299;28;19922;-72
2023/06/03 00:27:01;;;;;;;;;;;16.50;87.40;;;;;;4954663;28;20348;-71
2023/06/03 00:29:28;;;;;;;;;;;16.40;87.70;;;;;;4963396;28;19921;-72
2023/06/03 00:31:54;;;;;;;;;;;16.40;87.60;;;;;;4956121;28;19936;-71
2023/06/03 00:34:20;;;;;;;;;;;16.30;86.90;;;;;;4954420;28;19917;-71
2023/06/03 00:36:47;;;;;;;;;;;16.20;86.80;;;;;;4956138;28;19911;-71
2023/06/03 00:39:14;;;;;;;;;;;16.10;88.70;;;;;;4958235;28;19918;-71
2023/06/03 00:41:44;;;;;;;;;;;16.20;87.60;;;;;;4959881;28;19928;-71
2023/06/03 00:44:11;;;;;;;;;;;16.30;87.40;;;;;;4960875;28;19981;-71
2023/06/03 00:46:42;;;;;;;;;;;16.10;88.10;;;;;;4955900;28;19910;-72
2023/06/03 00:49:09;;;;;;;;;;;16.00;89.80;;;;;;4960586;28;20327;-71
2023/06/03 00:51:35;;;;;;;;;;;16.10;88.60;;;;;;4955022;28;20406;-72
2023/06/03 00:54:02;;;;;;;;;;;16.20;88.40;;;;;;4953169;28;21383;-71
2023/06/03 00:56:28;;;;;;;;;;;16.30;87.60;;;;;;4933845;28;20482;-71
2023/06/03 00:58:54;;;;;;;;;;;16.30;87.90;;;;;;4956477;28;19910;-71
2023/06/03 01:01:21;;;;;;;;;;;16.30;87.90;;;;;;4957629;28;19921;-71
2023/06/03 01:03:47;;;;;;;;;;;16.30;87.80;;;;;;4953507;28;19937;-71
2023/06/03 01:06:20;;;;;;;;;;;16.40;87.10;;;;;;4955712;28;20356;-71
2023/06/03 01:08:53;;;;;;;;;;;16.30;87.80;;;;;;4953271;28;19960;-71
2023/06/03 01:11:39;;;;;;;;;;;16.30;87.60;;;;;;4953616;28;19968;-72
2023/06/03 01:14:24;;;;;;;;;;;16.30;88.30;;;;;;4953080;28;20315;-71
2023/06/03 01:16:52;;;;;;;;;;;16.40;88.30;;;;;;4937459;28;20330;-71
2023/06/03 01:19:36;;;;;;;;;;;16.30;87.80;;;;;;4954258;28;20368;-71
2023/06/03 01:22:03;;;;;;;;;;;16.30;87.80;;;;;;4954396;28;19926;-72
2023/06/03 01:24:32;;;;;;;;;;;16.20;88.40;;;;;;4956161;28;19910;-71
2023/06/03 01:27:00;;;;;;;;;;;16.30;88.10;;;;;;4962425;28;19910;-72
2023/06/03 01:29:25;;;;;;;;;;;16.30;87.60;;;;;;4952077;28;20399;-72
2023/06/03 01:31:52;;;;;;;;;;;16.20;88.50;;;;;;4957006;28;19950;-72
2023/06/03 01:34:18;;;;;;;;;;;16.20;88.70;;;;;;4953211;28;20693;-71
2023/06/03 01:36:45;;;;;;;;;;;16.10;88.30;;;;;;4955747;28;19918;-71
2023/06/03 01:39:11;;;;;;;;;;;15.90;90.00;;;;;;4956552;28;19910;-71
2023/06/03 01:41:42;;;;;;;;;;;15.80;90.20;;;;;;4953950;28;20442;-72
2023/06/03 01:44:14;;;;;;;;;;;15.90;90.10;;;;;;4952482;28;19961;-71
2023/06/03 01:46:40;;;;;;;;;;;15.90;90.00;;;;;;4957925;28;19915;-72
2023/06/03 01:49:08;;;;;;;;;;;16.00;89.60;;;;;;4952918;28;19937;-72
2023/06/03 01:51:33;;;;;;;;;;;16.00;90.00;;;;;;4957818;28;19919;-72
2023/06/03 01:54:05;;;;;;;;;;;16.00;89.60;;;;;;4954670;28;19941;-70
2023/06/03 01:56:34;;;;;;;;;;;16.00;89.70;;;;;;4957336;28;20022;-72
2023/06/03 01:59:00;;;;;;;;;;;15.80;89.90;;;;;;4946553;28;19918;-71
2023/06/03 02:01:32;;;;;;;;;;;15.70;90.50;;;;;;4956054;28;19918;-71
2023/06/03 02:03:57;;;;;;;;;;;15.60;90.40;;;;;;4950891;28;19914;-72
2023/06/03 02:06:24;;;;;;;;;;;15.60;90.90;;;;;;4957935;28;19925;-71
2023/06/03 02:08:50;;;;;;;;;;;15.60;91.00;;;;;;4949316;28;19917;-72
2023/06/03 02:11:17;;;;;;;;;;;15.40;91.00;;;;;;4952130;28;19914;-71
2023/06/03 02:13:43;;;;;;;;;;;15.20;91.50;;;;;;4955722;28;19918;-72
2023/06/03 02:16:08;;;;;;;;;;;15.20;92.10;;;;;;4955360;28;19914;-71
2023/06/03 02:18:34;;;;;;;;;;;15.10;92.20;;;;;;4956722;28;19985;-70
2023/06/03 02:21:00;;;;;;;;;;;15.10;92.50;;;;;;4954691;28;19920;-71
2023/06/03 02:23:27;;;;;;;;;;;15.30;92.20;;;;;;4951314;28;19910;-72
2023/06/03 02:25:52;;;;;;;;;;;15.40;92.10;;;;;;4955874;28;19997;-71
2023/06/03 02:28:22;;;;;;;;;;;15.40;91.90;;;;;;4951647;28;19989;-71
2023/06/03 02:30:50;;;;;;;;;;;15.40;91.70;;;;;;4954684;28;19941;-71
2023/06/03 02:33:16;;;;;;;;;;;15.30;91.80;;;;;;4953312;28;20346;-71
2023/06/03 02:35:49;;;;;;;;;;;15.20;92.10;;;;;;4951591;28;20017;-71
2023/06/03 02:38:14;;;;;;;;;;;15.10;91.80;;;;;;4947496;28;19918;-72
2023/06/03 02:40:40;;;;;;;;;;;14.90;92.50;;;;;;4954039;28;19925;-71
2023/06/03 02:43:09;;;;;;;;;;;15.00;92.60;;;;;;4950774;28;19914;-71
2023/06/03 02:45:35;;;;;;;;;;;14.80;92.90;;;;;;4950354;28;21524;-72
2023/06/03 02:48:03;;;;;;;;;;;14.90;93.00;;;;;;4946579;28;19925;-72
2023/06/03 02:50:31;;;;;;;;;;;14.80;93.00;;;;;;4955058;28;20249;-71
2023/06/03 02:53:02;;;;;;;;;;;14.60;93.00;;;;;;4950759;28;19922;-71
2023/06/03 02:55:28;;;;;;;;;;;14.60;93.20;;;;;;4949037;28;19950;-71
2023/06/03 02:57:55;;;;;;;;;;;14.70;92.70;;;;;;4949382;28;19964;-72
2023/06/03 03:00:24;;;;;;;;;;;14.80;93.00;;;;;;4955367;28;19910;-72
2023/06/03 03:02:52;;;;;;;;;;;14.80;93.00;;;;;;4932101;28;19914;-72
2023/06/03 03:05:19;;;;;;;;;;;14.70;92.70;;;;;;4950465;28;19994;-71
2023/06/03 03:07:47;;;;;;;;;;;14.50;93.60;;;;;;4953077;28;19914;-71
2023/06/03 03:10:13;;;;;;;;;;;14.50;93.40;;;;;;4958832;28;19918;-72
2023/06/03 03:12:40;;;;;;;;;;;14.60;93.20;;;;;;4955228;28;19914;-71
2023/06/03 03:15:08;;;;;;;;;;;14.70;93.20;;;;;;4951264;28;19968;-71
2023/06/03 03:17:34;;;;;;;;;;;14.70;93.00;;;;;;4949522;28;19926;-73
2023/06/03 03:20:01;;;;;;;;;;;14.60;93.40;;;;;;4958767;28;19919;-72
2023/06/03 03:22:30;;;;;;;;;;;14.50;93.70;;;;;;4952303;28;19925;-72
2023/06/03 03:24:57;;;;;;;;;;;14.50;93.40;;;;;;4949959;28;19969;-72
2023/06/03 03:27:25;;;;;;;;;;;14.50;93.70;;;;;;4959334;28;19964;-72
2023/06/03 03:29:52;;;;;;;;;;;14.40;93.30;;;;;;4963436;28;19997;-72
2023/06/03 03:32:24;;;;;;;;;;;14.40;93.20;;;;;;4962868;28;19965;-71
2023/06/03 03:35:05;;;;;;;;;;;14.20;93.80;;;;;;4967797;28;19910;-73
2023/06/03 03:37:30;;;;;;;;;;;14.10;94.20;;;;;;4964975;28;19974;-73
2023/06/03 03:40:05;;;;;;;;;;;14.20;94.10;;;;;;4960712;28;20009;-73
2023/06/03 03:42:32;;;;;;;;;;;14.20;94.40;;;;;;4960185;28;19933;-71
2023/06/03 03:44:59;;;;;;;;;;;14.00;94.70;;;;;;4962362;28;19954;-72
2023/06/03 03:47:29;;;;;;;;;;;13.90;95.00;;;;;;4957566;28;19921;-71
2023/06/03 03:49:55;;;;;;;;;;;14.00;95.10;;;;;;4961556;28;19917;-71
2023/06/03 03:52:27;;;;;;;;;;;14.10;94.50;;;;;;4956389;28;19974;-71
2023/06/03 03:54:53;;;;;;;;;;;14.20;94.00;;;;;;4959023;28;20016;-71
2023/06/03 03:57:28;;;;;;;;;;;14.20;94.60;;;;;;4962056;28;19914;-71
2023/06/03 03:59:54;;;;;;;;;;;14.20;94.20;;;;;;4955540;28;20343;-71
2023/06/03 04:02:21;;;;;;;;;;;14.30;94.30;;;;;;4961543;28;20012;-71
2023/06/03 04:04:46;;;;;;;;;;;14.50;94.10;;;;;;4954187;28;19921;-71
2023/06/03 04:07:16;;;;;;;;;;;14.60;93.90;;;;;;4954897;28;19918;-71
2023/06/03 04:09:42;;;;;;;;;;;14.60;93.50;;;;;;4931735;28;19925;-72
2023/06/03 04:12:26;;;;;;;;;;;14.80;93.40;;;;;;4958482;28;19910;-72
2023/06/03 04:14:58;;;;;;;;;;;14.80;93.00;;;;;;4955410;28;19969;-71
2023/06/03 04:17:25;;;;;;;;;;;14.40;93.70;;;;;;4953429;28;19910;-72
2023/06/03 04:19:52;;;;;;;;;;;14.50;94.10;;;;;;4931116;28;19910;-72
2023/06/03 04:22:24;;;;;;;;;;;14.50;93.70;;;;;;4957344;28;19973;-71
2023/06/03 04:24:58;;;;;;;;;;;14.70;93.50;;;;;;4963131;28;19918;-71
2023/06/03 04:27:26;;;;;;;;;;;14.90;93.20;;;;;;4958825;28;19990;-71
2023/06/03 04:29:51;;;;;;;;;;;15.10;93.00;;;;;;4964280;28;19914;-71
2023/06/03 04:32:18;;;;;;;;;;;15.30;92.20;;;;;;4963770;28;19917;-71
2023/06/03 04:34:52;;;;;;;;;;;15.20;92.00;;;;;;4962705;28;19918;-72
2023/06/03 04:37:18;;;;;;;;;;;15.00;92.70;;;;;;4962121;28;19917;-71
2023/06/03 04:39:44;;;;;;;;;;;15.10;93.20;;;;;;4965401;28;19918;-71
2023/06/03 04:42:12;;;;;;;;;;;15.00;92.80;;;;;;4963592;28;20223;-71
2023/06/03 04:44:42;;;;;;;;;;;14.90;92.70;;;;;;4964404;28;19917;-71
2023/06/03 04:47:10;;;;;;;;;;;15.30;92.50;;;;;;4959849;28;20005;-71
2023/06/03 04:49:38;;;;;;;;;;;15.50;91.40;;;;;;4963387;28;20000;-72
2023/06/03 04:52:05;;;;;;;;;;;15.70;91.60;;;;;;4966496;28;19922;-75
2023/06/03 04:54:31;;;;;;;;;;;15.90;90.40;;;;;;4959033;28;19910;-75
2023/06/03 04:57:00;;;;;;;;;;;15.90;90.10;;;;;;4956098;28;20657;-75
2023/06/03 04:59:27;;;;;;;;;;;16.00;89.20;;;;;;4954244;28;19914;-74
2023/06/03 05:01:58;;;;;;;;;;;15.90;89.70;;;;;;4952004;28;19914;-77
2023/06/03 05:04:29;;;;;;;;;;;16.00;92.80;;;;;;4957596;28;20017;-77
2023/06/03 05:07:00;;;;;;;;;;;16.00;91.70;;;;;;4955931;28;19910;-76
2023/06/03 05:09:26;;;;;;;;;;;16.00;90.80;;;;;;4954858;28;20013;-77
2023/06/03 05:11:51;;;;;;;;;;;16.20;90.10;;;;;;4956287;28;19990;-76
2023/06/03 05:14:17;;;;;;;;;;;16.30;90.70;;;;;;4933879;28;19914;-77
2023/06/03 05:16:50;;;;;;;;;;;16.50;89.00;;;;;;4934445;28;19941;-76
2023/06/03 05:19:18;;;;;;;;;;;16.60;88.90;;;;;;4957777;28;19917;-76
2023/06/03 05:21:50;;;;;;;;;;;16.20;88.50;;;;;;4953036;28;19930;-76
2023/06/03 05:24:19;;;;;;;;;;;16.40;86.60;;;;;;4958896;28;19918;-76
2023/06/03 05:26:47;;;;;;;;;;;16.80;87.50;;;;;;4954610;28;19980;-76
2023/06/03 05:29:32;;;;;;;;;;;16.70;84.50;;;;;;4957810;28;19918;-76
2023/06/03 05:31:57;;;;;;;;;;;16.70;86.40;;;;;;4949561;28;19918;-76
2023/06/03 05:34:25;;;;;;;;;;;17.20;86.00;;;;;;4955461;28;19925;-73
2023/06/03 05:36:51;;;;;;;;;;;17.60;85.30;;;;;;4947213;28;19917;-73
2023/06/03 05:39:18;;;;;;;;;;;18.00;83.00;;;;;;4954790;28;19972;-73
2023/06/03 05:41:43;;;;;;;;;;;18.40;80.90;;;;;;4951804;28;19922;-73
2023/06/03 05:44:11;;;;;;;;;;;18.60;80.20;;;;;;4951901;28;20583;-73
2023/06/03 05:46:39;;;;;;;;;;;18.80;79.00;;;;;;4950270;28;19921;-73
2023/06/03 05:49:05;;;;;;;;;;;18.90;78.80;;;;;;4941188;28;21488;-73
2023/06/03 05:51:31;;;;;;;;;;;19.30;77.10;;;;;;4956299;28;19990;-73
2023/06/03 05:53:57;;;;;;;;;;;19.90;75.60;;;;;;4956973;28;19945;-74
2023/06/03 05:56:23;;;;;;;;;;;20.60;72.30;;;;;;4954749;28;19911;-73
2023/06/03 05:58:57;;;;;;;;;;;21.00;68.40;;;;;;4956002;28;20259;-73
2023/06/03 06:01:23;;;;;;;;;;;20.00;72.00;;;;;;4931970;28;19911;-74
2023/06/03 06:03:51;;;;;;;;;;;22.20;67.20;;;;;;4951407;28;19965;-74
2023/06/03 06:06:17;;;;;;;;;;;23.40;64.90;;;;;;4955568;28;19952;-74
2023/06/03 06:08:46;;;;;;;;;;;23.80;63.00;;;;;;4952726;28;19918;-74
2023/06/03 06:11:12;;;;;;;;;;;24.30;62.10;;;;;;4955017;28;19990;-73
2023/06/03 06:13:38;;;;;;;;;;;24.10;61.40;;;;;;4956268;28;19921;-74
2023/06/03 06:16:05;;;;;;;;;;;22.50;61.80;;;;;;4946945;28;19914;-74
2023/06/03 06:18:32;;;;;;;;;;;22.00;64.30;;;;;;4956702;28;19918;-73
2023/06/03 06:21:00;;;;;;;;;;;22.30;63.10;;;;;;4956859;28;20000;-72
2023/06/03 06:23:25;;;;;;;;;;;22.80;62.90;;;;;;4950933;28;19941;-73
2023/06/03 06:25:52;;;;;;;;;;;24.00;60.60;;;;;;4947314;28;20355;-73
2023/06/03 06:28:22;;;;;;;;;;;23.80;60.50;;;;;;4957981;28;19914;-74
2023/06/03 06:30:52;;;;;;;;;;;24.80;59.40;;;;;;4950347;28;20024;-73
2023/06/03 06:33:18;;;;;;;;;;;25.40;57.50;;;;;;4953588;28;19910;-73
2023/06/03 06:35:44;;;;;;;;;;;26.90;56.30;;;;;;4956949;28;19972;-72
2023/06/03 06:38:10;;;;;;;;;;;27.80;54.80;;;;;;4953671;28;19933;-73
2023/06/03 06:40:38;;;;;;;;;;;28.50;53.40;;;;;;4953282;28;20323;-73
2023/06/03 06:43:05;;;;;;;;;;;27.70;51.60;;;;;;4950987;28;19918;-73
2023/06/03 06:45:33;;;;;;;;;;;26.00;54.50;;;;;;4952373;28;20066;-73
2023/06/03 06:48:06;;;;;;;;;;;26.70;55.10;;;;;;4951395;28;20013;-73
2023/06/03 06:50:44;;;;;;;;;;;27.90;52.70;;;;;;4953105;28;19918;-73
2023/06/03 06:53:13;;;;;;;;;;;28.90;51.50;;;;;;4952382;28;19922;-73
2023/06/03 06:55:45;;;;;;;;;;;30.00;50.20;;;;;;4951465;28;19910;-73
2023/06/03 06:58:13;;;;;;;;;;;29.60;49.60;;;;;;4940880;28;19910;-73
2023/06/03 07:00:38;;;;;;;;;;;30.30;49.40;;;;;;4955670;28;20439;-73
2023/06/03 07:03:14;;;;;;;;;;;30.40;48.50;;;;;;4957131;28;20005;-73
2023/06/03 07:05:41;;;;;;;;;;;29.00;49.70;;;;;;4952654;28;20005;-73
2023/06/03 07:08:07;;;;;;;;;;;26.20;50.60;;;;;;4934967;28;20296;-73
2023/06/03 07:10:35;;;;;;;;;;;26.60;51.60;;;;;;4953579;28;20630;-73
2023/06/03 07:13:02;;;;;;;;;;;26.80;52.00;;;;;;4952721;28;19914;-73
2023/06/03 07:15:28;;;;;;;;;;;29.30;49.60;;;;;;4925508;28;19914;-73
2023/06/03 07:17:56;;;;;;;;;;;31.00;47.20;;;;;;4949774;28;19916;-73
2023/06/03 07:20:28;;;;;;;;;;;32.20;46.00;;;;;;4957363;28;20304;-74
2023/06/03 07:22:54;;;;;;;;;;;32.90;45.00;;;;;;4949855;28;20399;-73
2023/06/03 07:25:26;;;;;;;;;;;32.30;45.20;;;;;;4950327;28;19914;-74
2023/06/03 07:27:51;;;;;;;;;;;32.10;45.00;;;;;;4943620;28;19981;-73
2023/06/03 07:30:18;;;;;;;;;;;31.60;45.50;;;;;;4957596;28;20383;-74
2023/06/03 07:32:45;;;;;;;;;;;33.10;44.80;;;;;;4955878;28;20674;-72
2023/06/03 07:35:16;;;;;;;;;;;32.20;43.60;;;;;;4955086;28;19911;-76
2023/06/03 07:37:45;;;;;;;;;;;31.30;45.30;;;;;;4948853;28;19914;-75
2023/06/03 07:40:15;;;;;;;;;;;32.50;44.80;;;;;;4924100;28;20323;-75
2023/06/03 07:42:47;;;;;;;;;;;33.20;44.80;;;;;;4950176;28;19918;-75
2023/06/03 07:45:28;;;;;;;;;;;34.20;43.40;;;;;;4927554;28;21342;-75
2023/06/03 07:47:56;;;;;;;;;;;34.80;42.00;;;;;;4943197;28;20022;-75
2023/06/03 07:50:23;;;;;;;;;;;35.50;41.00;;;;;;4951260;28;19910;-75
2023/06/03 07:53:02;;;;;;;;;;;35.40;40.60;;;;;;4949145;28;20425;-76
2023/06/03 07:55:39;;;;;;;;;;;34.10;42.50;;;;;;4949653;28;19965;-76
2023/06/03 07:58:11;;;;;;;;;;;34.60;42.20;;;;;;4947416;28;19933;-75
2023/06/03 08:00:37;;;;;;;;;;;34.60;42.20;;;;;;4935214;28;19911;-76
2023/06/03 08:03:03;;;;;;;;;;;33.90;42.20;;;;;;4957202;28;20029;-76
2023/06/03 08:05:34;;;;;;;;;;;30.40;43.70;;;;;;4951987;28;20044;-74
2023/06/03 08:08:03;;;;;;;;;;;28.20;45.00;;;;;;4950029;28;19949;-75
2023/06/03 08:10:30;;;;;;;;;;;28.90;46.40;;;;;;4949293;28;19911;-74
2023/06/03 08:12:55;;;;;;;;;;;28.40;46.50;;;;;;4952120;28;19914;-75
2023/06/03 08:15:26;;;;;;;;;;;29.10;46.10;;;;;;4947281;28;19917;-76
2023/06/03 08:17:52;;;;;;;;;;;31.00;45.30;;;;;;4953627;28;20371;-77
2023/06/03 08:20:21;;;;;;;;;;;33.60;44.00;;;;;;4957129;28;19910;-76
2023/06/03 08:22:49;;;;;;;;;;;35.50;42.30;;;;;;4952287;28;19914;-75
2023/06/03 08:25:15;;;;;;;;;;;31.20;43.10;;;;;;4935334;28;19977;-75
2023/06/03 08:27:57;;;;;;;;;;;32.40;43.90;;;;;;4958666;28;20752;-76
2023/06/03 08:30:23;;;;;;;;;;;32.10;42.50;;;;;;4951429;28;19911;-75
2023/06/03 08:32:50;;;;;;;;;;;28.30;45.60;;;;;;4955204;28;19996;-75
2023/06/03 08:35:19;;;;;;;;;;;27.50;47.30;;;;;;4951518;28;19911;-75
2023/06/03 08:37:45;;;;;;;;;;;28.00;46.60;;;;;;4935583;28;20616;-76
2023/06/03 08:40:13;;;;;;;;;;;26.80;44.80;;;;;;4959615;28;19915;-75
2023/06/03 08:42:48;;;;;;;;;;;27.50;44.40;;;;;;4957503;28;19937;-76
2023/06/03 08:45:15;;;;;;;;;;;27.70;44.50;;;;;;4952023;28;19918;-76
2023/06/03 08:47:50;;;;;;;;;;;27.00;45.10;;;;;;4957173;28;20013;-75
2023/06/03 08:50:24;;;;;;;;;;;27.10;45.60;;;;;;4959989;28;20232;-76
2023/06/03 08:52:51;;;;;;;;;;;27.80;45.30;;;;;;4954625;28;19965;-76
2023/06/03 08:55:19;;;;;;;;;;;28.30;44.60;;;;;;4953572;28;19910;-76
2023/06/03 09:44:59;;;;;;;;;;;31.80;41.70;;;;;;4967110;28;19926;-91
2023/06/03 09:47:33;;;;;;;;;;;30.90;41.40;;;;;;4962700;28;20344;-85
2023/06/03 09:50:13;;;;;;;;;;;31.40;42.10;;;;;;4963755;28;20020;-94
2023/06/03 09:58:21;;;;;;;;;;;26.40;45.10;;;;;;5059944;23;20309;-94
2023/06/03 11:45:29;;;;;;;;;;;23.20;50.80;;;;;;4974873;23;19926;-73
2023/06/03 11:47:57;;;;;;;;;;;23.60;51.20;;;;;;4943737;28;20017;-73
2023/06/03 11:50:28;;;;;;;;;;;24.20;49.00;;;;;;4940961;28;19953;-71
2023/06/03 11:52:54;;;;;;;;;;;24.20;50.10;;;;;;4946326;28;19918;-73
2023/06/03 11:55:24;;;;;;;;;;;23.80;50.80;;;;;;4945588;28;19915;-73
2023/06/03 11:57:51;;;;;;;;;;;23.70;50.60;;;;;;4944023;28;19933;-73
2023/06/03 12:00:19;;;;;;;;;;;23.00;50.70;;;;;;4951930;28;19981;-74
2023/06/03 12:02:46;;;;;;;;;;;23.00;51.80;;;;;;4949984;28;19922;-73
2023/06/03 12:05:15;;;;;;;;;;;22.90;52.10;;;;;;4943799;28;19915;-73
2023/06/03 12:07:54;;;;;;;;;;;23.10;50.90;;;;;;4950361;28;19993;-73
2023/06/03 12:10:20;;;;;;;;;;;23.00;51.60;;;;;;4934727;28;19915;-73
2023/06/03 12:12:57;;;;;;;;;;;23.20;51.30;;;;;;4943148;28;19958;-74
2023/06/03 12:15:25;;;;;;;;;;;22.90;50.70;;;;;;4951778;28;19916;-73
2023/06/03 12:17:51;;;;;;;;;;;23.00;51.40;;;;;;4945913;28;19910;-74
2023/06/03 12:20:27;;;;;;;;;;;23.10;50.70;;;;;;4945575;28;19994;-81
2023/06/03 12:23:07;;;;;;;;;;;23.50;50.60;;;;;;4933446;29;19918;-80
2023/06/03 12:25:34;;;;;;;;;;;23.90;48.90;;;;;;4933119;29;19911;-81
2023/06/03 12:28:27;;;;;;;;;;;24.00;49.00;;;;;;4922998;29;20668;-81
2023/06/03 12:30:55;;;;;;;;;;;24.00;49.20;;;;;;4933483;29;19942;-81
2023/06/03 12:33:21;;;;;;;;;;;23.90;50.00;;;;;;4925631;29;19974;-78
2023/06/03 12:35:55;;;;;;;;;;;23.40;50.00;;;;;;4937395;29;19916;-78
2023/06/03 12:38:29;;;;;;;;;;;22.80;50.20;;;;;;4929950;29;19978;-77
2023/06/03 12:41:16;;;;;;;;;;;22.60;50.60;;;;;;4945313;29;19911;-83
2023/06/03 12:46:17;;;;;;;;;;;22.90;51.40;;;;;;4989382;28;19926;-77
2023/06/03 12:48:58;;;;;;;;;;;23.40;50.90;;;;;;5029387;23;19938;-77
2023/06/03 12:51:25;;;;;;;;;;;23.50;51.10;;;;;;4947270;28;19899;-75
2023/06/03 12:53:55;;;;;;;;;;;23.30;50.50;;;;;;4956303;28;19993;-75
2023/06/03 12:56:23;;;;;;;;;;;23.10;50.10;;;;;;4950929;28;20319;-72
2023/06/03 12:58:49;;;;;;;;;;;23.10;50.70;;;;;;4946888;28;19914;-68
2023/06/03 13:01:15;;;;;;;;;;;23.00;50.10;;;;;;4950982;28;20001;-72
2023/06/03 13:03:42;;;;;;;;;;;23.10;50.20;;;;;;4944444;28;20009;-72
2023/06/03 13:06:08;;;;;;;;;;;22.90;49.40;;;;;;4942299;28;19953;-71
2023/06/03 13:08:34;;;;;;;;;;;22.40;49.20;;;;;;4948889;28;19918;-71
2023/06/03 13:11:00;;;;;;;;;;;22.30;50.70;;;;;;4946855;28;20324;-71
2023/06/03 13:13:28;;;;;;;;;;;22.30;50.70;;;;;;4944821;28;19938;-70
2023/06/03 13:15:54;;;;;;;;;;;22.30;50.10;;;;;;4933758;28;19917;-70
2023/06/03 13:18:20;;;;;;;;;;;22.30;50.80;;;;;;4942187;28;19915;-69
2023/06/03 13:20:45;;;;;;;;;;;22.20;51.00;;;;;;4936197;28;19918;-71
2023/06/03 13:23:12;;;;;;;;;;;22.20;50.50;;;;;;4946609;28;19919;-70
2023/06/03 13:25:37;;;;;;;;;;;22.10;51.40;;;;;;4943926;28;20638;-71
2023/06/03 13:28:03;;;;;;;;;;;22.30;52.00;;;;;;4944258;28;19910;-71
2023/06/03 13:30:30;;;;;;;;;;;22.50;52.40;;;;;;4941844;28;20490;-71
2023/06/03 13:32:56;;;;;;;;;;;22.60;49.70;;;;;;4930588;28;19914;-71
2023/06/03 13:35:21;;;;;;;;;;;22.40;49.60;;;;;;4923989;28;20370;-72
2023/06/03 13:37:47;;;;;;;;;;;22.30;50.20;;;;;;4940757;28;19914;-71
2023/06/03 13:40:13;;;;;;;;;;;22.20;51.10;;;;;;4933354;28;19965;-70
2023/06/03 13:42:39;;;;;;;;;;;22.20;51.60;;;;;;4947094;28;20330;-71
2023/06/03 13:45:06;;;;;;;;;;;22.50;51.80;;;;;;4944767;28;19921;-72
2023/06/03 13:47:32;;;;;;;;;;;22.70;51.20;;;;;;4945501;28;19929;-71
2023/06/03 13:49:58;;;;;;;;;;;22.30;50.00;;;;;;4946209;28;19914;-71
2023/06/03 13:52:24;;;;;;;;;;;22.10;50.40;;;;;;4948512;28;19914;-71
2023/06/03 13:54:51;;;;;;;;;;;22.20;50.70;;;;;;4941456;28;20244;-70
2023/06/03 13:57:16;;;;;;;;;;;22.00;51.10;;;;;;4939795;28;19977;-71
2023/06/03 13:59:42;;;;;;;;;;;22.20;50.40;;;;;;4932167;28;19915;-71
2023/06/03 14:02:12;;;;;;;;;;;22.40;49.00;;;;;;4944226;28;19925;-72
2023/06/03 14:04:38;;;;;;;;;;;22.20;48.80;;;;;;4931366;28;19914;-71
2023/06/03 14:07:03;;;;;;;;;;;22.30;49.00;;;;;;4942212;28;19951;-71
2023/06/03 14:09:29;;;;;;;;;;;22.50;49.00;;;;;;4945727;28;19965;-70
2023/06/03 14:11:56;;;;;;;;;;;22.30;49.50;;;;;;4949299;28;19921;-70
2023/06/03 14:14:21;;;;;;;;;;;22.20;49.00;;;;;;4939401;28;19937;-70
2023/06/03 14:16:47;;;;;;;;;;;22.20;49.00;;;;;;4947366;28;20339;-70
2023/06/03 14:19:12;;;;;;;;;;;22.30;49.10;;;;;;4944383;28;19921;-70
2023/06/03 14:21:38;;;;;;;;;;;22.30;49.00;;;;;;4926070;28;19993;-70
2023/06/03 14:24:04;;;;;;;;;;;22.30;49.60;;;;;;4941069;28;19910;-70
2023/06/03 14:26:35;;;;;;;;;;;22.50;49.90;;;;;;4952448;28;19914;-70
2023/06/03 14:29:04;;;;;;;;;;;22.50;48.90;;;;;;4943987;28;19933;-70
2023/06/03 14:31:29;;;;;;;;;;;22.40;48.40;;;;;;4943676;28;19911;-71
2023/06/03 14:33:55;;;;;;;;;;;21.90;48.70;;;;;;4944286;28;20260;-71
2023/06/03 14:36:20;;;;;;;;;;;22.10;49.80;;;;;;4947726;28;19918;-70
2023/06/03 14:38:46;;;;;;;;;;;22.30;49.90;;;;;;4955034;28;19918;-71
2023/06/03 14:41:12;;;;;;;;;;;22.60;49.70;;;;;;4932060;28;19918;-71
2023/06/03 14:43:37;;;;;;;;;;;22.80;48.70;;;;;;4943618;28;19919;-74
2023/06/03 14:46:04;;;;;;;;;;;22.70;48.40;;;;;;4948291;28;19998;-74
2023/06/03 14:48:30;;;;;;;;;;;22.60;48.40;;;;;;4945073;28;20013;-70
2023/06/03 14:50:55;;;;;;;;;;;22.80;48.30;;;;;;4942358;28;20403;-70
2023/06/03 14:53:22;;;;;;;;;;;22.80;48.20;;;;;;4938997;28;20328;-71
2023/06/03 14:55:48;;;;;;;;;;;22.90;47.00;;;;;;4940365;28;19916;-71
2023/06/03 14:58:14;;;;;;;;;;;22.80;47.10;;;;;;4946736;28;19925;-72
2023/06/03 15:00:40;;;;;;;;;;;22.90;47.60;;;;;;4943594;28;20652;-70
2023/06/03 15:03:06;;;;;;;;;;;22.80;47.50;;;;;;4940869;28;19925;-63
2023/06/03 15:05:31;;;;;;;;;;;22.70;48.60;;;;;;4940233;28;19915;-67
2023/06/03 15:07:57;;;;;;;;;;;22.70;48.90;;;;;;4925356;28;20360;-67
2023/06/03 15:10:23;;;;;;;;;;;22.60;49.60;;;;;;4942524;28;20253;-66
2023/06/03 15:12:48;;;;;;;;;;;22.60;49.90;;;;;;4945120;28;20482;-65
2023/06/03 15:15:17;;;;;;;;;;;22.50;49.80;;;;;;4952472;28;20012;-80
2023/06/03 15:17:51;;;;;;;;;;;22.50;50.00;;;;;;4925270;28;19918;-75
2023/06/03 15:20:16;;;;;;;;;;;22.30;49.80;;;;;;4945697;28;19910;-76
2023/06/03 15:22:52;;;;;;;;;;;22.30;51.00;;;;;;4945449;28;20264;-77
2023/06/03 15:25:20;;;;;;;;;;;22.30;51.50;;;;;;4953949;28;20435;-78
2023/06/03 15:27:48;;;;;;;;;;;22.30;51.10;;;;;;4943713;28;19914;-79
2023/06/03 15:33:17;;;;;;;;;;;22.00;51.00;;;;;;4967057;28;19925;-82
2023/06/03 15:38:18;;;;;;;;;;;22.30;51.80;;;;;;6010909;23;20745;-81
2023/06/03 15:40:43;;;;;;;;;;;22.40;50.60;;;;;;4986839;23;20420;-76
2023/06/03 15:43:18;;;;;;;;;;;22.40;50.80;;;;;;4996311;28;19924;-77
2023/06/03 15:45:47;;;;;;;;;;;22.50;49.70;;;;;;4991524;28;19913;-79
2023/06/03 15:48:14;;;;;;;;;;;22.40;50.60;;;;;;5000388;28;19917;-77
2023/06/03 15:50:42;;;;;;;;;;;22.30;49.50;;;;;;4992112;28;20665;-78
2023/06/03 15:53:08;;;;;;;;;;;22.00;49.40;;;;;;4990679;28;20614;-78
2023/06/03 15:55:44;;;;;;;;;;;21.90;49.70;;;;;;4991359;28;19940;-76
2023/06/03 15:58:10;;;;;;;;;;;22.00;51.40;;;;;;4989166;28;19916;-78
2023/06/03 16:00:45;;;;;;;;;;;22.20;50.80;;;;;;5005580;28;19957;-77
2023/06/03 16:03:17;;;;;;;;;;;22.30;49.60;;;;;;4994010;28;19937;-79
2023/06/03 16:05:43;;;;;;;;;;;22.30;49.30;;;;;;4989110;28;19968;-77
2023/06/03 16:11:18;;;;;;;;;;;22.10;49.30;;;;;;5014816;28;19980;-80
2023/06/03 16:27:57;;;;;;;;;;;21.70;50.60;;;;;;5133412;23;19930;-80
2023/06/03 16:33:26;;;;;;;;;;;21.60;51.40;;;;;;4986962;28;19953;-78
2023/06/03 16:38:28;;;;;;;;;;;21.90;50.90;;;;;;5769876;23;19964;-79
2023/06/03 16:41:00;;;;;;;;;;;21.80;50.90;;;;;;4958281;28;20550;-81
2023/06/03 16:43:26;;;;;;;;;;;21.90;51.10;;;;;;4936153;28;20005;-78
2023/06/03 16:45:54;;;;;;;;;;;21.60;50.90;;;;;;4959253;28;19911;-81
2023/06/03 16:48:21;;;;;;;;;;;21.40;51.20;;;;;;4938130;28;19914;-80
2023/06/03 16:53:51;;;;;;;;;;;21.50;52.00;;;;;;5261967;23;19933;-79
2023/06/03 16:56:18;;;;;;;;;;;21.40;51.60;;;;;;4977973;28;20330;-79
2023/06/03 16:58:59;;;;;;;;;;;21.30;50.90;;;;;;4992696;28;19957;-82
2023/06/03 17:01:31;;;;;;;;;;;21.30;51.50;;;;;;4992322;28;19967;-81
2023/06/03 17:04:02;;;;;;;;;;;21.40;50.70;;;;;;4993951;28;19921;-81
2023/06/03 17:09:31;;;;;;;;;;;21.40;51.30;;;;;;4995545;28;20314;-82
2023/06/03 18:37:53;;;;;;;;;;;21.10;58.60;;;;;;5395329;23;20024;-80
2023/06/03 18:40:19;;;;;;;;;;;21.10;58.70;;;;;;4971055;28;19941;-80
2023/06/03 18:42:55;;;;;;;;;;;21.10;58.40;;;;;;4971508;28;19929;-79
2023/06/03 18:45:22;;;;;;;;;;;21.00;58.40;;;;;;4948400;28;20426;-80
2023/06/03 18:47:52;;;;;;;;;;;20.90;58.40;;;;;;4969599;28;20278;-80
2023/06/03 18:50:21;;;;;;;;;;;20.80;58.60;;;;;;4949560;28;20008;-80
2023/06/03 18:52:55;;;;;;;;;;;20.80;58.70;;;;;;4946369;28;19921;-80
2023/06/03 18:55:33;;;;;;;;;;;20.70;59.00;;;;;;4963715;28;20450;-80
2023/06/03 18:57:59;;;;;;;;;;;20.70;59.30;;;;;;4970134;28;19948;-79
2023/06/03 19:00:27;;;;;;;;;;;20.60;59.60;;;;;;4968523;28;19914;-80
2023/06/03 19:02:54;;;;;;;;;;;20.60;60.10;;;;;;4968628;28;19913;-79